createdAt,value
2022-10-13T00:00:48.194Z,85.91
2022-10-13T00:03:16.899Z,85.00
2022-10-13T00:05:47.054Z,86.29
2022-10-13T00:08:18.857Z,90.13
2022-10-13T00:10:47.928Z,91.05
2022-10-13T00:13:16.290Z,90.52
2022-10-13T00:15:47.385Z,90.94
2022-10-13T00:18:15.722Z,92.98
2022-10-13T00:20:45.176Z,91.11
2022-10-13T00:23:13.908Z,89.42
2022-10-13T00:25:43.378Z,88.72
2022-10-13T00:28:11.445Z,89.17
2022-10-13T00:30:40.326Z,97.36
2022-10-13T00:33:10.747Z,97.68
2022-10-13T00:35:42.989Z,94.76
2022-10-13T00:38:16.622Z,91.19
2022-10-13T00:40:46.157Z,88.92
2022-10-13T00:43:22.340Z,86.64
2022-10-13T00:45:50.845Z,86.02
2022-10-13T00:48:23.625Z,86.65
2022-10-13T00:50:52.484Z,90.54
2022-10-13T00:53:24.110Z,96.92
2022-10-13T00:55:53.476Z,100.00
2022-10-13T00:58:26.475Z,96.70
2022-10-13T01:00:54.764Z,94.39
2022-10-13T01:03:24.657Z,91.86
2022-10-13T01:05:54.707Z,91.45
2022-10-13T01:08:26.876Z,90.81
2022-10-13T01:11:10.907Z,89.01
2022-10-13T01:13:43.476Z,92.01
2022-10-13T01:16:16.777Z,93.12
2022-10-13T01:18:53.675Z,93.13
2022-10-13T01:21:29.290Z,93.86
2022-10-13T01:24:26.692Z,92.46
2022-10-13T01:27:16.307Z,90.64
2022-10-13T01:30:06.922Z,90.87
2022-10-13T01:33:02.632Z,90.57
2022-10-13T01:35:41.112Z,89.78
2022-10-13T01:38:16.387Z,89.30
2022-10-13T01:40:49.880Z,89.25
2022-10-13T01:43:24.539Z,89.00
2022-10-13T01:45:59.842Z,88.60
2022-10-13T01:48:28.855Z,88.90
2022-10-13T01:50:59.697Z,88.63
2022-10-13T01:53:28.905Z,89.36
2022-10-13T01:55:58.614Z,88.71
2022-10-13T01:58:29.884Z,89.32
2022-10-13T02:01:11.041Z,91.76
2022-10-13T02:03:53.178Z,91.90
2022-10-13T02:06:25.970Z,91.38
2022-10-13T02:09:02.540Z,93.16
2022-10-13T02:11:30.277Z,94.81
2022-10-13T02:14:03.075Z,94.15
2022-10-13T02:16:35.952Z,92.11
2022-10-13T02:19:05.716Z,90.29
2022-10-13T02:21:35.186Z,90.37
2022-10-13T02:24:03.615Z,89.84
2022-10-13T02:26:33.274Z,90.04
2022-10-13T02:29:11.196Z,89.75
2022-10-13T02:31:41.325Z,87.01
2022-10-13T02:34:09.213Z,87.05
2022-10-13T02:36:38.996Z,87.35
2022-10-13T02:39:07.710Z,88.65
2022-10-13T02:41:37.696Z,88.14
2022-10-13T02:44:06.012Z,88.46
2022-10-13T02:46:43.020Z,87.97
2022-10-13T02:49:10.882Z,88.39
2022-10-13T02:51:40.284Z,87.82
2022-10-13T02:54:08.717Z,89.05
2022-10-13T02:56:36.440Z,89.90
2022-10-13T03:00:51.052Z,90.23
2022-10-13T03:03:18.879Z,88.93
2022-10-13T03:05:48.133Z,87.69
2022-10-13T03:08:17.218Z,87.01
2022-10-13T03:10:46.176Z,87.46
2022-10-13T03:13:13.952Z,86.73
2022-10-13T03:15:43.818Z,86.79
2022-10-13T03:18:12.916Z,86.40
2022-10-13T03:20:40.751Z,85.89
2022-10-13T03:23:08.716Z,85.51
2022-10-13T03:25:37.190Z,85.49
2022-10-13T03:28:05.035Z,85.03
2022-10-13T03:30:32.735Z,85.31
2022-10-13T03:33:00.451Z,84.97
2022-10-13T03:35:29.520Z,84.69
2022-10-13T03:37:59.339Z,84.54
2022-10-13T03:40:31.486Z,84.27
2022-10-13T03:42:59.234Z,84.30
2022-10-13T03:45:31.332Z,85.26
2022-10-13T03:47:59.202Z,85.54
2022-10-13T03:50:27.086Z,85.07
2022-10-13T03:52:56.975Z,84.96
2022-10-13T03:55:24.698Z,84.81
2022-10-13T03:57:52.442Z,84.92
2022-10-13T04:00:22.425Z,85.23
2022-10-13T04:02:51.082Z,85.17
2022-10-13T04:05:18.787Z,85.18
2022-10-13T04:07:46.553Z,86.68
2022-10-13T04:10:20.885Z,86.19
2022-10-13T04:12:50.392Z,85.05
2022-10-13T04:15:18.308Z,85.44
2022-10-13T04:17:46.018Z,86.04
2022-10-13T04:20:16.060Z,85.19
2022-10-13T04:22:43.760Z,85.43
2022-10-13T04:25:11.647Z,84.63
2022-10-13T04:27:40.765Z,84.74
2022-10-13T04:30:13.342Z,84.12
2022-10-13T04:32:41.649Z,85.27
2022-10-13T04:35:12.133Z,84.92
2022-10-13T04:37:44.828Z,84.71
2022-10-13T04:40:13.537Z,84.40
2022-10-13T04:42:42.849Z,84.17
2022-10-13T04:45:11.156Z,84.62
2022-10-13T04:47:41.210Z,84.05
2022-10-13T04:50:10.189Z,83.91
2022-10-13T04:52:38.162Z,83.48
2022-10-13T04:55:07.018Z,84.15
2022-10-13T04:57:35.011Z,84.68
2022-10-13T05:00:07.216Z,84.65
2022-10-13T05:02:36.277Z,84.66
2022-10-13T05:05:04.883Z,83.57
2022-10-13T05:07:33.412Z,84.08
2022-10-13T05:10:01.388Z,83.97
2022-10-13T05:12:29.680Z,84.16
2022-10-13T05:14:58.880Z,83.61
2022-10-13T05:17:34.869Z,84.13
2022-10-13T05:20:07.729Z,83.77
2022-10-13T05:22:35.901Z,83.41
2022-10-13T05:25:04.182Z,83.46
2022-10-13T05:27:32.122Z,83.25
2022-10-13T05:30:03.803Z,82.32
2022-10-13T05:32:32.953Z,85.84
2022-10-13T05:35:00.730Z,85.21
2022-10-13T05:37:28.488Z,83.80
2022-10-13T05:39:56.271Z,85.39
2022-10-13T05:42:24.041Z,84.74
2022-10-13T05:44:52.129Z,84.57
2022-10-13T05:47:19.858Z,84.51
2022-10-13T05:49:48.926Z,84.79
2022-10-13T05:52:19.179Z,83.55
2022-10-13T05:54:49.909Z,84.27
2022-10-13T05:57:22.159Z,85.38
2022-10-13T05:59:53.286Z,85.05
2022-10-13T06:02:25.891Z,84.37
2022-10-13T06:04:57.525Z,84.20
2022-10-13T06:07:25.609Z,84.42
2022-10-13T06:09:53.475Z,84.79
2022-10-13T06:12:21.521Z,84.98
2022-10-13T06:14:49.347Z,84.57
2022-10-13T06:17:17.279Z,84.69
2022-10-13T06:19:46.232Z,85.18
2022-10-13T06:22:15.583Z,84.75
2022-10-13T06:24:43.303Z,85.15
2022-10-13T06:27:13.536Z,87.74
2022-10-13T06:29:41.281Z,87.06
2022-10-13T06:32:09.037Z,86.57
2022-10-13T06:34:36.789Z,86.09
2022-10-13T06:37:04.629Z,86.04
2022-10-13T06:39:33.835Z,85.73
2022-10-13T06:42:04.706Z,84.66
2022-10-13T06:44:37.156Z,84.20
2022-10-13T06:47:05.689Z,83.44
2022-10-13T06:49:33.454Z,82.91
2022-10-13T06:52:01.243Z,83.08
2022-10-13T06:54:28.947Z,82.81
2022-10-13T06:56:58.043Z,82.54
2022-10-13T06:59:26.405Z,82.09
2022-10-13T07:01:54.528Z,81.96
2022-10-13T07:04:22.924Z,81.78
2022-10-13T07:06:50.871Z,81.89
2022-10-13T07:09:20.014Z,81.89
2022-10-13T07:11:48.096Z,81.69
2022-10-13T07:14:19.297Z,82.08
2022-10-13T07:16:49.109Z,82.46
2022-10-13T07:19:16.787Z,82.65
2022-10-13T07:21:44.546Z,81.41
2022-10-13T07:24:13.058Z,81.87
2022-10-13T07:26:40.851Z,81.63
2022-10-13T07:29:08.918Z,82.14
2022-10-13T07:31:38.006Z,81.71
2022-10-13T07:34:06.659Z,81.45
2022-10-13T07:36:35.430Z,81.45
2022-10-13T07:39:03.872Z,82.10
2022-10-13T07:41:32.195Z,83.75
2022-10-13T07:43:59.921Z,83.06
2022-10-13T07:46:27.840Z,81.50
2022-10-13T07:48:57.070Z,79.90
2022-10-13T07:51:24.827Z,79.84
2022-10-13T07:53:52.515Z,78.93
2022-10-13T07:56:20.207Z,77.65
2022-10-13T07:58:50.049Z,77.78
2022-10-13T08:01:19.865Z,77.58
2022-10-13T08:03:50.230Z,76.09
2022-10-13T08:06:20.625Z,76.28
2022-10-13T08:08:48.554Z,75.88
2022-10-13T08:11:17.888Z,76.15
2022-10-13T08:13:48.679Z,76.89
2022-10-13T08:16:21.675Z,75.71
2022-10-13T08:18:51.574Z,75.18
2022-10-13T08:21:45.808Z,75.66
2022-10-13T08:24:14.354Z,76.54
2022-10-13T08:26:43.825Z,75.63
2022-10-13T08:29:28.181Z,75.62
2022-10-13T08:31:56.776Z,73.92
2022-10-13T08:34:25.788Z,72.89
2022-10-13T08:36:56.595Z,70.79
2022-10-13T08:39:25.692Z,71.35
2022-10-13T08:41:54.708Z,71.12
2022-10-13T08:47:25.402Z,70.70
2022-10-13T08:50:00.250Z,68.93
2022-10-13T08:52:44.483Z,70.49
2022-10-13T08:55:21.145Z,70.49
2022-10-13T08:57:48.997Z,71.22
2022-10-13T09:00:19.011Z,70.14
2022-10-13T09:02:50.840Z,69.66
2022-10-13T09:05:32.418Z,69.22
2022-10-13T09:08:12.330Z,70.51
2022-10-13T09:10:47.958Z,69.33
2022-10-13T09:13:19.568Z,67.40
2022-10-13T09:15:50.351Z,68.06
2022-10-13T09:18:18.324Z,67.84
2022-10-13T09:20:46.145Z,66.75
2022-10-13T09:23:21.499Z,68.66
2022-10-13T09:25:51.185Z,67.46
2022-10-13T09:28:23.861Z,67.23
2022-10-13T09:31:02.847Z,68.10
2022-10-13T09:33:30.577Z,67.63
2022-10-13T09:36:14.214Z,67.87
2022-10-13T09:38:45.621Z,68.28
2022-10-13T09:41:17.487Z,66.82
2022-10-13T09:43:59.955Z,68.56
2022-10-13T09:46:30.970Z,68.06
2022-10-13T09:49:03.112Z,68.04
2022-10-13T09:51:38.709Z,68.87
2022-10-13T09:54:29.476Z,68.04
2022-10-13T09:57:02.227Z,68.90
2022-10-13T09:59:35.825Z,68.79
2022-10-13T10:02:21.345Z,67.84
2022-10-13T10:04:54.264Z,68.44
2022-10-13T10:07:29.167Z,69.81
2022-10-13T10:10:04.877Z,69.57
2022-10-13T10:12:38.277Z,68.76
2022-10-13T10:15:21.247Z,68.41
2022-10-13T10:17:56.092Z,68.70
2022-10-13T10:20:46.537Z,69.08
2022-10-13T10:23:20.202Z,67.80
2022-10-13T10:25:52.882Z,67.57
2022-10-13T10:28:40.433Z,68.72
2022-10-13T10:31:19.662Z,67.68
2022-10-13T10:33:56.743Z,67.87
2022-10-13T10:36:35.629Z,69.36
2022-10-13T10:39:13.856Z,68.52
2022-10-13T10:41:50.649Z,66.57
2022-10-13T10:44:25.969Z,66.48
2022-10-13T10:46:59.803Z,66.95
2022-10-13T10:49:32.043Z,65.83
2022-10-13T10:52:02.155Z,66.61
2022-10-13T10:54:49.238Z,65.61
2022-10-13T10:57:25.531Z,66.06
2022-10-13T11:00:01.748Z,65.38
2022-10-13T11:02:45.050Z,64.37
2022-10-13T11:05:13.444Z,66.05
2022-10-13T11:07:59.603Z,64.97
2022-10-13T11:10:28.428Z,64.22
2022-10-13T11:13:25.875Z,65.28
2022-10-13T11:15:55.511Z,65.24
2022-10-13T11:18:56.496Z,64.27
2022-10-13T11:22:06.847Z,64.17
2022-10-13T11:24:59.722Z,64.48
2022-10-13T11:27:42.530Z,63.82
2022-10-13T11:30:57.380Z,65.43
2022-10-13T11:33:36.591Z,63.72
2022-10-13T11:36:36.539Z,64.00
2022-10-13T11:39:20.808Z,65.17
2022-10-13T11:41:59.452Z,64.32
2022-10-13T11:44:36.087Z,64.26
2022-10-13T11:47:16.036Z,63.76
2022-10-13T11:49:58.933Z,63.57
2022-10-13T11:52:41.028Z,65.27
2022-10-13T11:55:15.863Z,64.75
2022-10-13T11:57:46.234Z,64.46
2022-10-13T12:00:18.418Z,64.30
2022-10-13T12:02:52.168Z,64.18
2022-10-13T12:05:24.361Z,64.18
2022-10-13T12:07:58.544Z,64.84
2022-10-13T12:10:33.189Z,63.73
2022-10-13T12:13:05.985Z,62.96
2022-10-13T12:15:36.322Z,62.01
2022-10-13T12:18:19.880Z,61.52
2022-10-13T12:20:54.666Z,60.17
2022-10-13T12:23:22.888Z,64.00
2022-10-13T12:25:57.173Z,63.28
2022-10-13T12:28:28.390Z,66.92
2022-10-13T12:30:58.742Z,63.26
2022-10-13T12:33:32.548Z,62.62
2022-10-13T12:36:13.941Z,60.88
2022-10-13T12:38:46.777Z,59.59
2022-10-13T12:41:19.208Z,60.03
2022-10-13T12:43:49.632Z,60.68
2022-10-13T12:46:36.305Z,60.08
2022-10-13T12:49:09.187Z,58.70
2022-10-13T12:51:39.596Z,60.01
2022-10-13T12:54:09.461Z,59.67
2022-10-13T12:56:37.265Z,59.39
2022-10-13T12:59:06.369Z,58.86
2022-10-13T13:01:36.060Z,58.03
2022-10-13T13:04:17.773Z,59.14
2022-10-13T13:06:57.267Z,60.96
2022-10-13T13:09:28.177Z,58.71
2022-10-13T13:12:08.083Z,59.56
2022-10-13T13:14:39.564Z,59.15
2022-10-13T13:17:12.980Z,59.50
2022-10-13T13:19:42.587Z,59.35
2022-10-13T13:22:12.816Z,59.25
2022-10-13T13:24:40.850Z,58.46
2022-10-13T13:27:24.227Z,59.54
2022-10-13T13:29:54.599Z,58.77
2022-10-13T13:32:26.416Z,58.18
2022-10-13T13:34:54.101Z,58.94
2022-10-13T13:37:28.457Z,58.16
2022-10-13T13:39:56.416Z,57.93
2022-10-13T13:42:24.232Z,57.19
2022-10-13T13:44:53.270Z,58.10
2022-10-13T13:47:23.711Z,59.87
2022-10-13T13:49:54.049Z,62.14
2022-10-13T13:52:25.237Z,59.74
2022-10-13T13:54:56.122Z,59.37
2022-10-13T13:57:23.882Z,59.52
2022-10-13T13:59:52.996Z,59.51
2022-10-13T14:02:22.656Z,60.68
2022-10-13T14:04:53.279Z,59.63
2022-10-13T14:07:21.602Z,60.90
2022-10-13T14:09:53.795Z,62.39
2022-10-13T14:12:23.513Z,62.57
2022-10-13T14:14:52.850Z,62.21
2022-10-13T14:17:22.882Z,61.38
2022-10-13T14:19:50.634Z,62.25
2022-10-13T14:22:18.471Z,61.74
2022-10-13T14:24:48.387Z,62.96
2022-10-13T14:27:16.139Z,66.29
2022-10-13T14:29:46.253Z,66.94
2022-10-13T14:32:15.593Z,70.00
2022-10-13T14:34:43.333Z,72.41
2022-10-13T14:37:11.221Z,72.43
2022-10-13T14:39:39.139Z,73.72
2022-10-13T14:42:07.428Z,74.00
2022-10-13T14:44:35.152Z,73.50
2022-10-13T14:47:02.875Z,71.03
2022-10-13T14:49:31.983Z,68.67
2022-10-13T14:51:59.656Z,68.58
2022-10-13T14:54:28.919Z,70.28
2022-10-13T14:56:56.605Z,69.85
2022-10-13T14:59:24.258Z,70.46
2022-10-13T15:01:51.938Z,71.10
2022-10-13T15:04:19.620Z,72.34
2022-10-13T15:11:07.196Z,73.95
2022-10-13T15:13:35.001Z,74.97
2022-10-13T15:16:04.676Z,73.73
2022-10-13T15:18:33.133Z,74.61
2022-10-13T15:21:01.017Z,73.23
2022-10-13T15:23:29.223Z,74.05
2022-10-13T15:25:58.632Z,74.09
2022-10-13T15:28:29.745Z,72.08
2022-10-13T15:30:57.590Z,74.50
2022-10-13T15:33:25.338Z,72.77
2022-10-13T15:35:54.627Z,71.61
2022-10-13T15:38:23.180Z,72.11
2022-10-13T15:40:50.907Z,72.16
2022-10-13T15:43:19.467Z,71.72
2022-10-13T15:45:56.371Z,71.79
2022-10-13T15:48:24.734Z,73.25
2022-10-13T15:50:52.575Z,73.04
2022-10-13T15:53:20.938Z,72.08
2022-10-13T15:55:49.678Z,72.79
2022-10-13T15:58:18.145Z,72.12
2022-10-13T16:00:46.462Z,71.58
2022-10-13T16:03:17.702Z,75.90
2022-10-13T16:05:46.779Z,73.81
2022-10-13T16:08:15.189Z,72.26
2022-10-13T16:10:44.233Z,72.47
2022-10-13T16:13:15.289Z,72.29
2022-10-13T16:15:43.056Z,76.40
2022-10-13T16:18:11.122Z,74.77
2022-10-13T16:20:45.233Z,78.63
2022-10-13T16:23:13.171Z,76.64
2022-10-13T16:25:41.020Z,75.52
2022-10-13T16:28:08.705Z,74.91
2022-10-13T16:30:37.334Z,74.53
2022-10-13T16:33:05.195Z,75.08
2022-10-13T16:35:34.205Z,74.92
2022-10-13T16:38:05.471Z,75.23
2022-10-13T16:40:38.014Z,81.94
2022-10-13T16:43:05.769Z,80.75
2022-10-13T16:45:55.262Z,78.62
2022-10-13T16:48:21.478Z,78.06
2022-10-13T16:50:49.167Z,77.95
2022-10-13T16:53:21.573Z,77.58
2022-10-13T16:55:49.336Z,77.53
2022-10-13T16:58:17.866Z,77.67
2022-10-13T17:00:45.662Z,79.28
2022-10-13T17:03:13.486Z,80.71
2022-10-13T17:05:41.334Z,80.35
2022-10-13T17:08:09.069Z,79.50
2022-10-13T17:10:38.208Z,81.34
2022-10-13T17:13:06.081Z,81.61
2022-10-13T17:15:33.883Z,82.21
2022-10-13T17:18:01.582Z,88.55
2022-10-13T17:20:29.325Z,90.14
2022-10-13T17:22:57.057Z,88.02
2022-10-13T17:25:25.047Z,85.07
2022-10-13T17:27:54.316Z,82.58
2022-10-13T17:30:22.275Z,87.44
2022-10-13T17:32:52.347Z,90.17
2022-10-13T17:35:23.287Z,89.32
2022-10-13T17:37:51.050Z,87.15
2022-10-13T17:40:19.260Z,86.77
2022-10-13T17:42:47.081Z,85.25
2022-10-13T17:45:18.545Z,83.80
2022-10-13T17:47:49.530Z,82.60
2022-10-13T17:50:17.811Z,82.25
2022-10-13T17:52:45.673Z,81.62
2022-10-13T17:55:13.451Z,81.61
2022-10-13T17:57:43.337Z,81.26
2022-10-13T18:00:12.479Z,81.09
2022-10-13T18:02:41.661Z,80.72
2022-10-13T18:05:09.772Z,81.02
2022-10-13T18:07:37.660Z,80.90
2022-10-13T18:10:06.711Z,80.91
2022-10-13T18:12:34.524Z,80.96
2022-10-13T18:15:02.308Z,80.45
2022-10-13T18:17:30.041Z,80.67
2022-10-13T18:19:59.863Z,80.80
2022-10-13T18:22:28.516Z,80.96
2022-10-13T18:24:57.401Z,81.33
2022-10-13T18:27:25.177Z,80.82
2022-10-13T18:29:52.937Z,81.62
2022-10-13T18:32:22.561Z,81.79
2022-10-13T18:34:50.273Z,81.64
2022-10-13T18:37:19.682Z,81.59
2022-10-13T18:39:49.512Z,82.77
2022-10-13T18:42:17.196Z,82.81
2022-10-13T18:44:44.899Z,82.13
2022-10-13T18:47:12.638Z,82.06
2022-10-13T18:49:40.307Z,82.05
2022-10-13T18:52:08.041Z,82.05
2022-10-13T18:54:41.139Z,86.42
2022-10-13T18:57:08.837Z,86.15
2022-10-13T18:59:38.613Z,88.94
2022-10-13T19:02:06.516Z,88.88
2022-10-13T19:04:36.232Z,90.63
2022-10-13T19:07:04.273Z,90.87
2022-10-13T19:09:32.087Z,87.66
2022-10-13T19:12:01.147Z,86.21
2022-10-13T19:14:31.207Z,85.47
2022-10-13T19:17:01.942Z,84.39
2022-10-13T19:19:30.647Z,84.49
2022-10-13T19:21:58.553Z,83.89
2022-10-13T19:24:26.292Z,83.11
2022-10-13T19:26:54.045Z,83.67
2022-10-13T19:29:23.157Z,84.54
2022-10-13T19:31:52.982Z,83.91
2022-10-13T19:34:20.922Z,83.88
2022-10-13T19:36:49.128Z,84.61
2022-10-13T19:39:19.718Z,84.18
2022-10-13T19:41:48.465Z,84.13
2022-10-13T19:44:17.522Z,83.76
2022-10-13T19:46:48.025Z,84.49
2022-10-13T19:49:21.141Z,83.11
2022-10-13T19:51:50.052Z,83.48
2022-10-13T19:54:19.442Z,82.94
2022-10-13T19:56:49.011Z,83.97
2022-10-13T19:59:17.623Z,84.46
2022-10-13T20:01:46.733Z,84.00
2022-10-13T20:04:15.845Z,83.74
2022-10-13T20:06:44.451Z,84.48
2022-10-13T20:09:12.241Z,84.09
2022-10-13T20:11:39.976Z,83.23
2022-10-13T20:14:07.774Z,83.50
2022-10-13T20:16:36.678Z,83.35
2022-10-13T20:19:05.790Z,82.80
2022-10-13T20:21:33.534Z,84.50
2022-10-13T20:24:01.322Z,84.24
2022-10-13T20:26:29.321Z,83.03
2022-10-13T20:28:58.131Z,84.28
2022-10-13T20:31:26.514Z,84.33
2022-10-13T20:33:55.751Z,82.71
2022-10-13T20:36:28.839Z,83.48
2022-10-13T20:38:56.928Z,83.33
2022-10-13T20:41:28.288Z,83.06
2022-10-13T20:43:57.810Z,82.79
2022-10-13T20:46:25.903Z,82.65
2022-10-13T20:49:11.811Z,82.01
2022-10-13T20:51:42.499Z,81.86
2022-10-13T20:54:14.083Z,85.52
2022-10-13T20:56:42.364Z,85.18
2022-10-13T20:59:14.526Z,83.86
2022-10-13T21:01:42.435Z,83.09
2022-10-13T21:04:11.167Z,83.22
2022-10-13T21:06:39.307Z,82.53
2022-10-13T21:09:08.775Z,82.50
2022-10-13T21:11:40.527Z,82.66
2022-10-13T21:14:09.595Z,82.33
2022-10-13T21:16:38.384Z,82.77
2022-10-13T21:19:09.901Z,83.17
2022-10-13T21:21:37.843Z,83.07
2022-10-13T21:24:08.624Z,83.16
2022-10-13T21:26:37.695Z,82.93
2022-10-13T21:29:13.325Z,82.55
2022-10-13T21:31:41.126Z,82.64
2022-10-13T21:34:08.946Z,85.25
2022-10-13T21:36:36.659Z,86.67
2022-10-13T21:39:06.447Z,87.14
2022-10-13T21:41:35.521Z,85.71
2022-10-13T21:44:03.559Z,84.69
2022-10-13T21:46:34.706Z,84.32
2022-10-13T21:49:04.443Z,84.90
2022-10-13T21:51:33.437Z,85.67
2022-10-13T21:54:03.693Z,85.94
2022-10-13T21:56:32.597Z,85.58
2022-10-13T21:59:02.286Z,84.97
2022-10-13T22:01:30.526Z,85.51
2022-10-13T22:04:01.355Z,85.52
2022-10-13T22:06:31.647Z,85.07
2022-10-13T22:09:03.951Z,84.79
2022-10-13T22:11:34.405Z,85.86
2022-10-13T22:14:08.678Z,86.18
2022-10-13T22:16:40.671Z,84.96
2022-10-13T22:19:08.784Z,84.49
2022-10-13T22:21:40.091Z,84.04
2022-10-13T22:24:10.520Z,82.87
2022-10-13T22:26:41.168Z,82.88
2022-10-13T22:29:12.940Z,83.59
2022-10-13T22:31:41.480Z,84.22
2022-10-13T22:34:12.954Z,84.34
2022-10-13T22:36:44.738Z,83.86
2022-10-13T22:39:13.213Z,83.22
2022-10-13T22:41:41.404Z,83.64
2022-10-13T22:44:10.528Z,86.32
2022-10-13T22:46:39.014Z,86.87
2022-10-13T22:49:08.113Z,89.05
2022-10-13T22:51:37.604Z,88.96
2022-10-13T22:54:07.528Z,89.79
2022-10-13T22:56:36.148Z,89.06
2022-10-13T22:59:07.317Z,90.17
2022-10-13T23:01:38.815Z,91.01
2022-10-13T23:04:06.887Z,88.94
2022-10-13T23:06:36.055Z,88.50
2022-10-13T23:09:08.129Z,88.14
2022-10-13T23:11:36.692Z,87.67
2022-10-13T23:14:07.091Z,86.55
2022-10-13T23:16:35.241Z,85.75
2022-10-13T23:19:04.623Z,84.97
2022-10-13T23:21:32.872Z,84.93
2022-10-13T23:24:02.768Z,84.11
2022-10-13T23:26:31.503Z,84.00
2022-10-13T23:29:00.028Z,83.19
2022-10-13T23:31:28.670Z,84.55
2022-10-13T23:33:56.749Z,84.34
2022-10-13T23:36:28.269Z,84.31
2022-10-13T23:38:58.118Z,83.59
2022-10-13T23:41:26.232Z,83.56
2022-10-13T23:43:56.244Z,83.47
2022-10-13T23:46:24.161Z,83.32
2022-10-13T23:48:52.255Z,84.55
2022-10-13T23:51:21.920Z,84.98
2022-10-13T23:53:51.731Z,89.88
2022-10-13T23:56:20.404Z,91.00
2022-10-13T23:58:48.527Z,89.55
